createdAt,value
2022-09-26T00:01:38.503Z,11.01
2022-09-26T00:04:23.053Z,10.96
2022-09-26T00:06:53.926Z,10.89
2022-09-26T00:09:23.708Z,10.81
2022-09-26T00:11:51.772Z,10.78
2022-09-26T00:14:24.048Z,10.73
2022-09-26T00:16:52.348Z,10.69
2022-09-26T00:19:21.437Z,10.67
2022-09-26T00:21:49.409Z,10.71
2022-09-26T00:24:17.360Z,10.76
2022-09-26T00:26:45.314Z,10.80
2022-09-26T00:29:13.914Z,10.84
2022-09-26T00:31:46.075Z,10.89
2022-09-26T00:34:17.406Z,10.93
2022-09-26T00:36:45.515Z,10.97
2022-09-26T00:39:15.465Z,10.99
2022-09-26T00:41:44.354Z,10.97
2022-09-26T00:44:41.547Z,10.93
2022-09-26T00:47:36.780Z,10.90
2022-09-26T00:50:13.669Z,10.88
2022-09-26T00:52:51.922Z,10.84
2022-09-26T00:55:24.162Z,10.68
2022-09-26T00:58:24.915Z,10.57
2022-09-26T01:00:53.422Z,10.52
2022-09-26T01:03:24.114Z,10.49
2022-09-26T01:05:52.090Z,10.46
2022-09-26T01:08:25.651Z,10.44
2022-09-26T01:10:53.754Z,10.43
2022-09-26T01:13:22.274Z,10.45
2022-09-26T01:15:50.261Z,10.48
2022-09-26T01:18:18.798Z,10.50
2022-09-26T01:20:56.004Z,10.50
2022-09-26T01:23:55.535Z,10.53
2022-09-26T01:26:30.652Z,10.53
2022-09-26T01:29:36.961Z,10.53
2022-09-26T01:32:45.940Z,10.57
2022-09-26T01:35:51.540Z,10.60
2022-09-26T01:38:56.434Z,10.60
2022-09-26T01:41:58.345Z,10.56
2022-09-26T01:44:38.678Z,10.54
2022-09-26T01:47:38.863Z,10.53
2022-09-26T01:50:23.878Z,10.54
2022-09-26T01:53:06.561Z,10.58
2022-09-26T01:55:59.630Z,10.60
2022-09-26T01:58:38.249Z,10.61
2022-09-26T02:01:10.822Z,10.61
2022-09-26T02:03:53.932Z,10.60
2022-09-26T02:06:28.694Z,10.61
2022-09-26T02:09:09.452Z,10.62
2022-09-26T02:11:41.778Z,10.60
2022-09-26T02:14:34.639Z,10.54
2022-09-26T02:17:17.169Z,10.49
2022-09-26T02:20:07.007Z,10.42
2022-09-26T02:22:35.453Z,10.36
2022-09-26T02:25:04.933Z,10.36
2022-09-26T02:27:34.699Z,10.38
2022-09-26T02:30:05.969Z,10.41
2022-09-26T02:32:34.822Z,10.45
2022-09-26T02:35:24.899Z,10.47
2022-09-26T02:37:53.622Z,10.50
2022-09-26T02:40:34.213Z,10.52
2022-09-26T02:43:25.274Z,10.54
2022-09-26T02:46:27.719Z,10.56
2022-09-26T02:49:24.992Z,10.51
2022-09-26T02:52:02.170Z,10.51
2022-09-26T02:54:56.910Z,10.52
2022-09-26T02:57:40.422Z,10.58
2022-09-26T03:00:09.449Z,10.61
2022-09-26T03:02:49.241Z,10.59
2022-09-26T03:05:22.221Z,10.57
2022-09-26T03:07:54.400Z,10.60
2022-09-26T03:10:24.437Z,10.63
2022-09-26T03:12:54.423Z,10.64
2022-09-26T03:15:24.365Z,10.63
2022-09-26T03:17:55.461Z,10.63
2022-09-26T03:20:25.007Z,10.62
2022-09-26T03:22:53.723Z,10.62
2022-09-26T03:25:26.127Z,10.62
2022-09-26T03:28:02.415Z,10.63
2022-09-26T03:30:30.600Z,10.64
2022-09-26T03:33:18.604Z,10.65
2022-09-26T03:35:47.468Z,10.66
2022-09-26T03:38:16.031Z,10.66
2022-09-26T03:40:49.936Z,10.64
2022-09-26T03:43:36.879Z,10.59
2022-09-26T03:46:07.348Z,10.57
2022-09-26T03:48:35.556Z,10.56
2022-09-26T03:51:13.552Z,10.51
2022-09-26T03:53:43.919Z,10.52
2022-09-26T03:56:18.314Z,10.52
2022-09-26T03:58:47.407Z,10.48
2022-09-26T04:01:19.314Z,10.43
2022-09-26T04:03:50.762Z,10.41
2022-09-26T04:06:21.210Z,10.39
2022-09-26T04:08:52.596Z,10.37
2022-09-26T04:11:24.845Z,10.35
2022-09-26T04:13:54.224Z,10.32
2022-09-26T04:16:29.745Z,10.30
2022-09-26T04:19:03.906Z,10.26
2022-09-26T04:21:35.631Z,10.26
2022-09-26T04:24:03.779Z,10.24
2022-09-26T04:26:32.300Z,10.24
2022-09-26T04:29:00.476Z,10.28
2022-09-26T04:31:48.711Z,10.35
2022-09-26T04:34:23.501Z,10.41
2022-09-26T04:36:54.708Z,10.46
2022-09-26T04:39:23.418Z,10.51
2022-09-26T04:41:52.511Z,10.57
2022-09-26T04:44:20.598Z,10.59
2022-09-26T04:46:48.922Z,10.61
2022-09-26T04:49:17.425Z,10.64
2022-09-26T04:51:45.641Z,10.70
2022-09-26T04:54:14.349Z,10.77
2022-09-26T04:56:43.772Z,10.82
2022-09-26T04:59:11.754Z,10.86
2022-09-26T05:01:48.185Z,10.91
2022-09-26T05:04:27.499Z,10.96
2022-09-26T05:06:58.011Z,11.00
2022-09-26T05:09:34.153Z,11.03
2022-09-26T05:12:08.858Z,11.04
2022-09-26T05:14:37.804Z,11.07
2022-09-26T05:17:06.265Z,11.11
2022-09-26T05:19:34.865Z,11.14
2022-09-26T05:22:20.316Z,11.17
2022-09-26T05:25:07.442Z,11.25
2022-09-26T05:27:36.946Z,11.34
2022-09-26T05:30:05.351Z,11.43
2022-09-26T05:32:34.431Z,11.52
2022-09-26T05:35:05.462Z,11.56
2022-09-26T05:37:34.303Z,11.58
2022-09-26T05:40:32.686Z,11.61
2022-09-26T05:43:02.640Z,11.65
2022-09-26T05:45:33.656Z,11.61
2022-09-26T05:48:04.177Z,11.56
2022-09-26T05:50:33.615Z,11.57
2022-09-26T05:53:02.917Z,11.62
2022-09-26T05:55:31.312Z,11.63
2022-09-26T05:58:06.380Z,11.64
2022-09-26T06:00:52.545Z,11.64
2022-09-26T06:03:22.929Z,11.66
2022-09-26T06:06:09.087Z,11.79
2022-09-26T06:08:39.119Z,12.02
2022-09-26T06:11:33.411Z,12.37
2022-09-26T06:14:02.578Z,12.74
2022-09-26T06:16:31.580Z,13.14
2022-09-26T06:19:02.780Z,13.57
2022-09-26T06:21:31.590Z,13.92
2022-09-26T06:24:06.456Z,14.13
2022-09-26T06:26:36.211Z,14.29
2022-09-26T06:29:07.577Z,14.40
2022-09-26T06:31:37.547Z,14.50
2022-09-26T06:34:14.904Z,14.61
2022-09-26T06:37:01.601Z,14.65
2022-09-26T06:39:35.916Z,14.68
2022-09-26T06:42:07.744Z,14.61
2022-09-26T06:44:38.801Z,14.45
2022-09-26T06:47:33.922Z,14.32
2022-09-26T06:50:25.034Z,14.21
2022-09-26T06:52:56.680Z,14.20
2022-09-26T06:55:26.462Z,14.26
2022-09-26T06:57:54.579Z,14.34
2022-09-26T07:00:29.898Z,14.43
2022-09-26T07:03:06.257Z,14.45
2022-09-26T07:05:57.407Z,14.43
2022-09-26T07:08:50.152Z,14.44
2022-09-26T07:14:05.619Z,14.47
2022-09-26T07:16:34.107Z,14.52
2022-09-26T07:19:23.242Z,14.56
2022-09-26T07:21:58.089Z,14.58
2022-09-26T07:24:29.260Z,14.54
2022-09-26T07:26:58.082Z,14.48
2022-09-26T07:29:27.906Z,14.41
2022-09-26T07:31:56.164Z,14.33
2022-09-26T07:34:38.599Z,14.26
2022-09-26T07:37:07.902Z,14.22
2022-09-26T07:39:36.462Z,14.19
2022-09-26T07:42:04.766Z,14.19
2022-09-26T07:47:40.857Z,14.28
2022-09-26T07:50:27.492Z,14.39
2022-09-26T07:52:59.137Z,14.48
2022-09-26T07:55:28.349Z,14.57
2022-09-26T07:58:11.686Z,14.70
2022-09-26T08:01:12.238Z,14.84
2022-09-26T08:04:11.879Z,14.95
2022-09-26T08:06:41.870Z,15.05
2022-09-26T08:09:10.236Z,15.17
2022-09-26T08:11:56.931Z,15.28
2022-09-26T08:14:48.651Z,15.36
2022-09-26T08:17:22.208Z,15.44
2022-09-26T08:19:50.949Z,15.53
2022-09-26T08:22:20.248Z,15.56
2022-09-26T08:24:51.767Z,15.50
2022-09-26T08:27:32.794Z,15.44
2022-09-26T08:30:03.533Z,15.46
2022-09-26T08:32:33.963Z,15.52
2022-09-26T08:35:02.376Z,15.55
2022-09-26T08:37:33.664Z,15.60
2022-09-26T08:40:27.708Z,15.67
2022-09-26T08:43:53.239Z,15.74
2022-09-26T08:47:00.369Z,15.80
2022-09-26T08:50:16.225Z,15.91
2022-09-26T08:52:47.784Z,16.05
2022-09-26T08:55:23.379Z,16.20
2022-09-26T08:58:10.410Z,16.31
2022-09-26T09:00:39.470Z,16.41
2022-09-26T09:03:36.298Z,16.48
2022-09-26T09:06:11.581Z,16.61
2022-09-26T09:08:46.614Z,16.75
2022-09-26T09:11:53.649Z,16.89
2022-09-26T09:15:24.104Z,17.02
2022-09-26T09:18:30.649Z,17.19
2022-09-26T09:22:12.614Z,17.40
2022-09-26T09:25:31.232Z,17.57
2022-09-26T09:28:20.741Z,17.71
2022-09-26T09:31:01.445Z,17.84
2022-09-26T09:33:44.663Z,17.95
2022-09-26T09:36:44.951Z,18.06
2022-09-26T09:39:30.240Z,18.18
2022-09-26T09:42:27.616Z,18.30
2022-09-26T09:45:12.944Z,18.44
2022-09-26T09:47:41.113Z,18.54
2022-09-26T09:50:26.734Z,18.65
2022-09-26T09:53:13.715Z,18.75
2022-09-26T09:56:14.879Z,18.83
2022-09-26T09:58:43.165Z,18.97
2022-09-26T10:01:39.342Z,19.12
2022-09-26T10:04:44.042Z,19.32
2022-09-26T10:07:13.135Z,19.51
2022-09-26T10:09:44.472Z,19.73
2022-09-26T10:12:30.868Z,19.95
2022-09-26T10:15:27.700Z,20.19
2022-09-26T10:18:24.564Z,20.45
2022-09-26T10:21:18.051Z,20.71
2022-09-26T10:23:50.927Z,20.88
2022-09-26T10:26:44.747Z,21.00
2022-09-26T10:29:34.418Z,21.03
2022-09-26T10:32:03.801Z,20.96
2022-09-26T10:34:35.899Z,20.86
2022-09-26T10:37:25.360Z,20.77
2022-09-26T10:40:21.236Z,20.58
2022-09-26T10:42:49.511Z,20.40
2022-09-26T10:45:29.344Z,20.27
2022-09-26T10:48:48.464Z,19.88
2022-09-26T10:51:45.583Z,19.51
2022-09-26T10:54:18.967Z,19.13
2022-09-26T10:56:54.422Z,18.71
2022-09-26T10:59:28.240Z,18.50
2022-09-26T11:01:59.273Z,18.23
2022-09-26T11:04:49.526Z,17.83
2022-09-26T11:07:44.186Z,17.47
2022-09-26T11:10:32.793Z,16.98
2022-09-26T11:13:20.816Z,16.57
2022-09-26T11:16:09.103Z,16.23
2022-09-26T11:18:52.439Z,16.02
2022-09-26T11:21:34.451Z,15.73
2022-09-26T11:24:48.083Z,15.65
2022-09-26T11:27:51.459Z,15.78
2022-09-26T11:30:28.021Z,15.81
2022-09-26T11:33:05.565Z,15.68
2022-09-26T11:35:58.508Z,15.57
2022-09-26T11:38:39.504Z,15.34
2022-09-26T11:41:08.258Z,15.28
2022-09-26T11:44:02.390Z,15.31
2022-09-26T11:47:18.027Z,15.36
2022-09-26T11:50:20.524Z,15.31
2022-09-26T11:53:07.368Z,15.37
2022-09-26T11:56:06.737Z,15.53
2022-09-26T11:58:43.684Z,15.67
2022-09-26T12:01:38.401Z,15.85
2022-09-26T12:04:13.139Z,16.12
2022-09-26T12:07:02.663Z,16.34
2022-09-26T12:09:36.902Z,16.52
2022-09-26T12:12:05.675Z,16.61
2022-09-26T12:15:02.509Z,16.67
2022-09-26T12:17:59.864Z,16.76
2022-09-26T12:20:34.287Z,16.77
2022-09-26T12:23:21.433Z,16.80
2022-09-26T12:26:30.276Z,16.86
2022-09-26T12:29:17.055Z,16.96
2022-09-26T12:32:16.799Z,17.00
2022-09-26T12:35:01.164Z,17.00
2022-09-26T12:37:46.467Z,16.96
2022-09-26T12:40:39.717Z,16.97
2022-09-26T12:43:26.313Z,16.99
2022-09-26T12:46:12.936Z,17.03
2022-09-26T12:49:26.737Z,17.14
2022-09-26T12:52:06.976Z,17.24
2022-09-26T12:55:14.373Z,17.25
2022-09-26T12:57:57.312Z,17.23
2022-09-26T13:00:27.431Z,17.15
2022-09-26T13:02:58.690Z,17.09
2022-09-26T13:05:57.572Z,16.99
2022-09-26T13:09:03.261Z,16.93
2022-09-26T13:11:49.460Z,16.90
2022-09-26T13:14:27.442Z,16.84
2022-09-26T13:17:06.090Z,16.89
2022-09-26T13:19:44.065Z,16.91
2022-09-26T13:22:32.976Z,16.97
2022-09-26T13:25:19.031Z,16.96
2022-09-26T13:27:58.160Z,16.84
2022-09-26T13:30:35.340Z,16.68
2022-09-26T13:33:26.748Z,16.60
2022-09-26T13:35:59.878Z,16.56
2022-09-26T13:38:46.167Z,16.48
2022-09-26T13:41:20.230Z,16.36
2022-09-26T13:44:06.052Z,16.22
2022-09-26T13:46:52.970Z,16.11
2022-09-26T13:49:37.495Z,16.05
2022-09-26T13:52:05.783Z,16.05
2022-09-26T13:54:45.544Z,16.07
2022-09-26T13:57:46.151Z,16.06
2022-09-26T14:00:30.479Z,15.97
2022-09-26T14:03:15.811Z,15.85
2022-09-26T14:05:50.089Z,15.78
2022-09-26T14:08:42.931Z,15.74
2022-09-26T14:11:42.710Z,15.69
2022-09-26T14:14:17.996Z,15.67
2022-09-26T14:16:46.881Z,15.63
2022-09-26T14:19:39.492Z,15.58
2022-09-26T14:22:20.878Z,15.54
2022-09-26T14:24:49.797Z,15.55
2022-09-26T14:27:17.982Z,15.53
2022-09-26T14:29:49.449Z,15.48
2022-09-26T14:32:19.200Z,15.42
2022-09-26T14:34:50.479Z,15.39
2022-09-26T14:37:24.723Z,15.39
2022-09-26T14:40:08.293Z,15.37
2022-09-26T14:42:42.480Z,15.39
2022-09-26T14:45:16.817Z,15.41
2022-09-26T14:47:53.366Z,15.43
2022-09-26T14:50:28.091Z,15.46
2022-09-26T14:53:02.247Z,15.47
2022-09-26T14:55:31.654Z,15.49
2022-09-26T14:58:49.942Z,15.53
2022-09-26T15:01:45.338Z,15.54
2022-09-26T15:04:16.677Z,15.53
2022-09-26T15:06:49.194Z,15.48
2022-09-26T15:09:26.389Z,15.47
2022-09-26T15:12:01.377Z,15.45
2022-09-26T15:14:45.571Z,15.41
2022-09-26T15:17:25.991Z,15.38
2022-09-26T15:19:57.637Z,15.34
2022-09-26T15:22:29.242Z,15.31
2022-09-26T15:25:19.411Z,15.32
2022-09-26T15:27:54.058Z,15.37
2022-09-26T15:30:32.530Z,15.39
2022-09-26T15:33:05.855Z,15.40
2022-09-26T15:35:34.181Z,15.40
2022-09-26T15:38:09.979Z,15.39
2022-09-26T15:40:38.328Z,15.39
2022-09-26T15:43:09.819Z,15.36
2022-09-26T15:45:47.902Z,15.35
2022-09-26T15:48:20.676Z,15.32
2022-09-26T15:50:52.220Z,15.29
2022-09-26T15:53:26.589Z,15.24
2022-09-26T15:56:18.585Z,15.19
2022-09-26T15:58:53.907Z,15.15
2022-09-26T16:01:25.843Z,15.12
2022-09-26T16:03:55.231Z,15.08
2022-09-26T16:06:50.799Z,15.05
2022-09-26T16:09:21.748Z,15.03
2022-09-26T16:11:59.186Z,14.98
2022-09-26T16:14:51.018Z,14.93
2022-09-26T16:17:36.420Z,14.87
2022-09-26T16:20:24.663Z,14.83
2022-09-26T16:23:04.162Z,14.80
2022-09-26T16:25:54.851Z,14.78
2022-09-26T16:28:42.753Z,14.79
2022-09-26T16:31:23.481Z,14.79
2022-09-26T16:33:53.860Z,14.79
2022-09-26T16:36:31.062Z,14.78
2022-09-26T16:39:04.234Z,14.78
2022-09-26T16:42:00.229Z,14.78
2022-09-26T16:44:36.364Z,14.77
2022-09-26T16:47:29.659Z,14.74
2022-09-26T16:50:31.324Z,14.75
2022-09-26T16:53:07.014Z,14.68
2022-09-26T16:55:37.629Z,14.57
2022-09-26T16:58:06.268Z,14.48
2022-09-26T17:00:53.510Z,14.39
2022-09-26T17:03:32.580Z,14.31
2022-09-26T17:06:00.742Z,14.23
2022-09-26T17:08:29.718Z,14.17
2022-09-26T17:11:02.038Z,14.11
2022-09-26T17:13:35.307Z,14.05
2022-09-26T17:16:03.863Z,14.01
2022-09-26T17:18:33.961Z,13.97
2022-09-26T17:21:03.132Z,13.94
2022-09-26T17:23:40.415Z,13.91
2022-09-26T17:26:20.029Z,13.90
2022-09-26T17:28:49.490Z,13.89
2022-09-26T17:31:21.747Z,13.88
2022-09-26T17:33:53.537Z,13.86
2022-09-26T17:36:24.938Z,13.87
2022-09-26T17:38:54.880Z,13.88
2022-09-26T17:41:25.532Z,13.87
2022-09-26T17:43:59.154Z,13.86
2022-09-26T17:46:28.170Z,13.86
2022-09-26T17:48:56.539Z,13.87
2022-09-26T17:51:25.404Z,13.87
2022-09-26T17:53:57.601Z,13.87
2022-09-26T17:56:26.672Z,13.87
2022-09-26T17:58:57.141Z,13.87
2022-09-26T18:01:33.677Z,13.89
2022-09-26T18:04:12.647Z,13.89
2022-09-26T18:06:42.976Z,13.86
2022-09-26T18:09:15.833Z,13.85
2022-09-26T18:11:50.060Z,13.85
2022-09-26T18:14:18.557Z,13.85
2022-09-26T18:16:46.710Z,13.85
2022-09-26T18:19:14.664Z,13.84
2022-09-26T18:21:42.796Z,13.84
2022-09-26T18:24:19.392Z,13.85
2022-09-26T18:26:51.040Z,13.87
2022-09-26T18:29:44.711Z,13.89
2022-09-26T18:32:31.965Z,13.89
2022-09-26T18:35:01.115Z,13.92
2022-09-26T18:37:29.396Z,13.94
2022-09-26T18:40:02.934Z,13.94
2022-09-26T18:42:33.129Z,13.92
2022-09-26T18:45:07.992Z,13.95
2022-09-26T18:47:42.629Z,13.97
2022-09-26T18:50:34.486Z,13.96
2022-09-26T18:53:23.485Z,13.96
2022-09-26T18:56:10.570Z,13.91
2022-09-26T18:58:39.378Z,13.83
2022-09-26T19:01:23.561Z,13.76
2022-09-26T19:03:52.125Z,13.72
2022-09-26T19:06:28.915Z,13.66
2022-09-26T19:09:11.560Z,13.64
2022-09-26T19:11:39.885Z,13.61
2022-09-26T19:14:21.196Z,13.56
2022-09-26T19:16:50.858Z,13.51
2022-09-26T19:19:19.800Z,13.47
2022-09-26T19:21:51.652Z,13.48
2022-09-26T19:24:34.639Z,13.50
2022-09-26T19:27:11.780Z,13.55
2022-09-26T19:29:54.912Z,13.61
2022-09-26T19:32:28.821Z,13.68
2022-09-26T19:35:00.723Z,13.69
2022-09-26T19:37:29.573Z,13.65
2022-09-26T19:39:58.396Z,13.62
2022-09-26T19:42:27.059Z,13.64
2022-09-26T19:44:56.544Z,13.67
2022-09-26T19:47:24.759Z,13.71
2022-09-26T19:49:53.252Z,13.73
2022-09-26T19:52:23.021Z,13.76
2022-09-26T19:54:51.115Z,13.75
2022-09-26T19:57:22.086Z,13.68
2022-09-26T19:59:50.923Z,13.67
2022-09-26T20:02:31.403Z,13.68
2022-09-26T20:04:59.444Z,13.64
2022-09-26T20:07:27.960Z,13.58
2022-09-26T20:09:56.767Z,13.48
2022-09-26T20:12:24.697Z,13.33
2022-09-26T20:14:52.623Z,13.23
2022-09-26T20:17:25.245Z,13.17
2022-09-26T20:19:58.585Z,13.13
2022-09-26T20:22:27.150Z,13.10
2022-09-26T20:24:55.886Z,13.03
2022-09-26T20:27:28.198Z,12.98
2022-09-26T20:30:15.126Z,12.94
2022-09-26T20:32:43.456Z,12.91
2022-09-26T20:35:14.674Z,12.92
2022-09-26T20:37:44.293Z,12.95
2022-09-26T20:40:19.559Z,12.98
2022-09-26T20:42:50.950Z,13.00
2022-09-26T20:45:30.550Z,13.03
2022-09-26T20:47:59.817Z,13.08
2022-09-26T20:50:34.232Z,13.12
2022-09-26T20:53:02.710Z,13.14
2022-09-26T20:55:32.540Z,13.17
2022-09-26T20:58:00.591Z,13.22
2022-09-26T21:00:29.050Z,13.22
2022-09-26T21:02:57.367Z,13.24
2022-09-26T21:05:27.619Z,13.26
2022-09-26T21:07:57.851Z,13.25
2022-09-26T21:10:32.387Z,13.24
2022-09-26T21:13:01.390Z,13.26
2022-09-26T21:15:32.458Z,13.26
2022-09-26T21:18:02.268Z,13.25
2022-09-26T21:20:34.093Z,13.24
2022-09-26T21:23:05.641Z,13.26
2022-09-26T21:25:34.345Z,13.22
2022-09-26T21:28:11.565Z,13.19
2022-09-26T21:30:39.832Z,13.17
2022-09-26T21:33:13.555Z,13.14
2022-09-26T21:35:42.881Z,13.15
2022-09-26T21:38:11.054Z,13.16
2022-09-26T21:40:45.553Z,13.16
2022-09-26T21:43:17.264Z,13.17
2022-09-26T21:45:46.603Z,13.15
2022-09-26T21:48:15.788Z,13.11
2022-09-26T21:50:51.914Z,13.11
2022-09-26T21:53:29.294Z,13.13
2022-09-26T21:56:06.475Z,13.17
2022-09-26T21:58:40.397Z,13.20
2022-09-26T22:01:09.995Z,13.21
2022-09-26T22:03:38.027Z,13.25
2022-09-26T22:06:09.439Z,13.26
2022-09-26T22:08:39.540Z,13.27
2022-09-26T22:11:09.114Z,13.32
2022-09-26T22:13:37.721Z,13.35
2022-09-26T22:16:07.812Z,13.41
2022-09-26T22:18:39.108Z,13.43
2022-09-26T22:21:09.405Z,13.45
2022-09-26T22:23:37.876Z,13.47
2022-09-26T22:26:07.163Z,13.43
2022-09-26T22:28:35.790Z,13.40
2022-09-26T22:31:05.326Z,13.40
2022-09-26T22:33:34.334Z,13.41
2022-09-26T22:36:03.120Z,13.43
2022-09-26T22:38:33.142Z,13.45
2022-09-26T22:41:03.694Z,13.49
2022-09-26T22:43:32.799Z,13.50
2022-09-26T22:46:06.546Z,13.46
2022-09-26T22:48:36.572Z,13.35
2022-09-26T22:51:05.838Z,13.24
2022-09-26T22:53:36.782Z,13.19
2022-09-26T22:56:06.770Z,13.12
2022-09-26T22:58:38.490Z,13.09
2022-09-26T23:01:09.645Z,13.07
2022-09-26T23:03:38.494Z,13.07
2022-09-26T23:06:07.666Z,13.04
2022-09-26T23:08:36.800Z,13.01
2022-09-26T23:11:06.771Z,13.00
2022-09-26T23:13:35.704Z,12.99
2022-09-26T23:16:09.894Z,12.98
2022-09-26T23:18:39.970Z,12.98
2022-09-26T23:21:15.173Z,12.95
2022-09-26T23:23:58.589Z,12.92
2022-09-26T23:26:30.088Z,12.89
2022-09-26T23:28:59.297Z,12.86
2022-09-26T23:31:29.147Z,12.84
2022-09-26T23:33:57.738Z,12.84
2022-09-26T23:36:26.163Z,12.85
2022-09-26T23:38:56.842Z,12.84
2022-09-26T23:41:24.920Z,12.88
2022-09-26T23:43:52.822Z,12.94
2022-09-26T23:46:21.049Z,12.90
2022-09-26T23:48:49.512Z,12.82
2022-09-26T23:51:17.457Z,12.81
2022-09-26T23:53:46.213Z,12.83
2022-09-26T23:56:14.794Z,12.83
2022-09-26T23:58:43.776Z,12.83
